createdAt,value
2023-02-23T00:00:21.146Z,11.84
2023-02-23T00:01:30.228Z,11.84
2023-02-23T00:02:43.908Z,11.83
2023-02-23T00:04:07.198Z,11.82
2023-02-23T00:05:31.484Z,11.81
2023-02-23T00:06:54.140Z,11.81
2023-02-23T00:08:15.975Z,11.82
2023-02-23T00:09:38.762Z,11.81
2023-02-23T00:11:00.286Z,11.80
2023-02-23T00:12:23.906Z,11.79
2023-02-23T00:13:47.085Z,11.80
2023-02-23T00:15:10.075Z,11.80
2023-02-23T00:16:33.016Z,11.80
2023-02-23T00:17:56.210Z,11.81
2023-02-23T00:19:17.846Z,11.80
2023-02-23T00:20:45.132Z,11.80
2023-02-23T00:22:06.669Z,11.78
2023-02-23T00:23:29.173Z,11.76
2023-02-23T00:24:51.660Z,11.74
2023-02-23T00:26:14.575Z,11.73
2023-02-23T00:27:38.435Z,11.72
2023-02-23T00:29:01.373Z,11.73
2023-02-23T00:30:24.116Z,11.70
2023-02-23T00:31:47.764Z,11.71
2023-02-23T00:33:10.394Z,11.71
2023-02-23T00:34:32.018Z,11.70
2023-02-23T00:35:55.565Z,11.69
2023-02-23T00:37:17.917Z,11.68
2023-02-23T00:38:41.696Z,11.69
2023-02-23T00:40:05.558Z,11.68
2023-02-23T00:41:29.577Z,11.68
2023-02-23T00:42:52.763Z,11.68
2023-02-23T00:44:15.327Z,11.68
2023-02-23T00:45:38.105Z,11.66
2023-02-23T00:47:02.004Z,11.66
2023-02-23T00:48:24.518Z,11.67
2023-02-23T00:49:46.072Z,11.67
2023-02-23T00:51:08.605Z,11.68
2023-02-23T00:52:30.171Z,11.69
2023-02-23T00:53:55.540Z,11.69
2023-02-23T00:55:17.160Z,11.71
2023-02-23T00:56:40.411Z,11.70
2023-02-23T00:58:04.362Z,11.72
2023-02-23T00:59:26.863Z,11.72
2023-02-23T01:00:49.430Z,11.72
2023-02-23T01:02:13.293Z,11.72
2023-02-23T01:03:35.562Z,11.72
2023-02-23T01:04:58.044Z,11.71
2023-02-23T01:06:19.877Z,11.71
2023-02-23T01:07:42.516Z,11.70
2023-02-23T01:09:09.623Z,11.69
2023-02-23T01:10:32.231Z,11.67
2023-02-23T01:11:56.352Z,11.66
2023-02-23T01:13:19.373Z,11.66
2023-02-23T01:14:42.448Z,11.65
2023-02-23T01:16:05.394Z,11.66
2023-02-23T01:17:30.487Z,11.65
2023-02-23T01:18:52.080Z,11.65
2023-02-23T01:20:18.248Z,11.64
2023-02-23T01:21:42.905Z,11.64
2023-02-23T01:23:07.347Z,11.64
2023-02-23T01:24:29.984Z,11.63
2023-02-23T01:25:51.520Z,11.62
2023-02-23T01:27:14.018Z,11.63
2023-02-23T01:28:35.667Z,11.61
2023-02-23T01:29:58.209Z,11.62
2023-02-23T01:31:20.876Z,11.62
2023-02-23T01:32:44.970Z,11.61
2023-02-23T01:34:07.533Z,11.63
2023-02-23T01:35:30.583Z,11.63
2023-02-23T01:36:53.127Z,11.62
2023-02-23T01:38:15.621Z,11.62
2023-02-23T01:39:38.232Z,11.61
2023-02-23T01:41:00.163Z,11.62
2023-02-23T01:42:22.839Z,11.60
2023-02-23T01:43:57.389Z,11.59
2023-02-23T01:45:28.733Z,11.59
2023-02-23T01:46:52.959Z,11.59
2023-02-23T01:48:23.039Z,11.58
2023-02-23T01:49:45.023Z,11.58
2023-02-23T01:51:15.131Z,11.57
2023-02-23T01:52:37.627Z,11.58
2023-02-23T01:54:05.434Z,11.57
2023-02-23T01:55:29.199Z,11.58
2023-02-23T01:56:57.943Z,11.57
2023-02-23T01:58:15.113Z,11.57
2023-02-23T01:59:19.191Z,11.56
2023-02-23T02:00:25.613Z,11.56
2023-02-23T02:01:29.450Z,11.55
2023-02-23T02:02:33.680Z,11.56
2023-02-23T02:03:41.340Z,11.56
2023-02-23T02:04:44.352Z,11.55
2023-02-23T02:05:49.309Z,11.55
2023-02-23T02:06:53.733Z,11.55
2023-02-23T02:07:59.328Z,11.55
2023-02-23T02:09:06.629Z,11.54
2023-02-23T02:10:28.960Z,11.54
2023-02-23T02:11:36.185Z,11.52
2023-02-23T02:12:38.503Z,11.53
2023-02-23T02:13:41.250Z,11.53
2023-02-23T02:14:45.563Z,11.53
2023-02-23T02:16:18.214Z,11.54
2023-02-23T02:17:34.101Z,11.54
2023-02-23T02:18:48.055Z,11.52
2023-02-23T02:20:32.597Z,11.52
2023-02-23T02:22:29.925Z,11.51
2023-02-23T02:24:01.770Z,11.52
2023-02-23T02:25:30.385Z,11.51
2023-02-23T02:26:45.037Z,11.51
2023-02-23T02:28:04.184Z,11.52
2023-02-23T02:29:34.549Z,11.51
2023-02-23T02:31:08.949Z,11.50
2023-02-23T02:32:47.249Z,11.48
2023-02-23T02:34:06.706Z,11.46
2023-02-23T02:35:48.297Z,11.44
2023-02-23T02:37:19.024Z,11.42
2023-02-23T02:38:32.825Z,11.40
2023-02-23T02:39:44.772Z,11.40
2023-02-23T02:40:53.925Z,11.41
2023-02-23T02:42:05.942Z,11.41
2023-02-23T02:43:14.215Z,11.41
2023-02-23T02:44:21.208Z,11.39
2023-02-23T02:45:27.047Z,11.37
2023-02-23T02:46:35.002Z,11.37
2023-02-23T02:47:42.935Z,11.36
2023-02-23T02:48:51.842Z,11.36
2023-02-23T02:50:02.665Z,11.35
2023-02-23T02:51:09.789Z,11.35
2023-02-23T02:52:19.064Z,11.36
2023-02-23T02:53:29.797Z,11.34
2023-02-23T02:54:36.997Z,11.33
2023-02-23T02:55:43.799Z,11.33
2023-02-23T02:56:47.146Z,11.31
2023-02-23T02:57:51.366Z,11.32
2023-02-23T02:58:53.589Z,11.32
2023-02-23T03:00:13.862Z,11.30
2023-02-23T03:01:36.885Z,11.28
2023-02-23T03:02:59.215Z,11.27
2023-02-23T03:04:22.938Z,11.25
2023-02-23T03:05:47.283Z,11.24
2023-02-23T03:07:15.640Z,11.23
2023-02-23T03:08:52.157Z,11.22
2023-02-23T03:10:17.085Z,11.21
2023-02-23T03:11:37.386Z,11.21
2023-02-23T03:13:06.779Z,11.20
2023-02-23T03:14:42.058Z,11.19
2023-02-23T03:16:14.606Z,11.18
2023-02-23T03:17:43.959Z,11.17
2023-02-23T03:19:19.393Z,11.17
2023-02-23T03:20:48.888Z,11.16
2023-02-23T03:22:15.589Z,11.16
2023-02-23T03:23:41.772Z,11.16
2023-02-23T03:25:11.156Z,11.14
2023-02-23T03:26:37.512Z,11.16
2023-02-23T03:28:05.457Z,11.15
2023-02-23T03:29:33.131Z,11.15
2023-02-23T03:31:05.237Z,11.14
2023-02-23T03:32:30.981Z,11.13
2023-02-23T03:33:59.281Z,11.14
2023-02-23T03:35:25.512Z,11.13
2023-02-23T03:36:49.333Z,11.13
2023-02-23T03:38:14.615Z,11.13
2023-02-23T03:39:43.019Z,11.13
2023-02-23T03:41:07.670Z,11.12
2023-02-23T03:42:34.748Z,11.13
2023-02-23T03:44:00.515Z,11.13
2023-02-23T03:45:25.092Z,11.12
2023-02-23T03:46:48.381Z,11.12
2023-02-23T03:48:11.980Z,11.13
2023-02-23T03:49:34.706Z,11.13
2023-02-23T03:50:58.990Z,11.13
2023-02-23T03:52:25.933Z,11.12
2023-02-23T03:53:50.316Z,11.12
2023-02-23T03:55:15.679Z,11.10
2023-02-23T03:56:40.108Z,11.08
2023-02-23T03:58:04.211Z,11.06
2023-02-23T03:59:26.203Z,11.05
2023-02-23T04:00:49.679Z,11.04
2023-02-23T04:02:12.792Z,11.03
2023-02-23T04:03:36.209Z,11.01
2023-02-23T04:04:57.179Z,10.99
2023-02-23T04:06:17.538Z,10.98
2023-02-23T04:07:38.808Z,10.99
2023-02-23T04:08:59.397Z,10.99
2023-02-23T04:10:22.678Z,11.00
2023-02-23T04:11:47.177Z,11.01
2023-02-23T04:13:15.076Z,11.00
2023-02-23T04:14:20.454Z,10.99
2023-02-23T04:15:27.840Z,10.98
2023-02-23T04:16:31.445Z,10.97
2023-02-23T04:17:34.619Z,10.96
2023-02-23T04:18:38.336Z,10.96
2023-02-23T04:19:50.245Z,10.95
2023-02-23T04:20:51.892Z,10.96
2023-02-23T04:21:54.871Z,10.96
2023-02-23T04:22:56.942Z,10.95
2023-02-23T04:23:59.623Z,10.96
2023-02-23T04:25:01.280Z,10.96
2023-02-23T04:26:05.396Z,10.97
2023-02-23T04:27:07.553Z,10.95
2023-02-23T04:28:10.090Z,10.94
2023-02-23T04:29:12.721Z,10.94
2023-02-23T04:30:15.354Z,10.94
2023-02-23T04:31:18.898Z,10.93
2023-02-23T04:32:21.775Z,10.93
2023-02-23T04:33:24.901Z,10.91
2023-02-23T04:34:27.558Z,10.91
2023-02-23T04:35:39.661Z,10.90
2023-02-23T04:36:42.680Z,10.89
2023-02-23T04:37:44.246Z,10.89
2023-02-23T04:38:46.754Z,10.88
2023-02-23T04:39:49.818Z,10.87
2023-02-23T04:40:53.550Z,10.87
2023-02-23T04:41:56.474Z,10.87
2023-02-23T04:42:59.068Z,10.87
2023-02-23T04:44:00.617Z,10.86
2023-02-23T04:45:03.155Z,10.85
2023-02-23T04:46:05.073Z,10.83
2023-02-23T04:47:07.592Z,10.83
2023-02-23T04:48:10.414Z,10.82
2023-02-23T04:49:12.143Z,10.81
2023-02-23T04:50:15.065Z,10.81
2023-02-23T04:51:17.240Z,10.81
2023-02-23T04:52:20.039Z,10.80
2023-02-23T04:53:21.729Z,10.80
2023-02-23T04:54:24.291Z,10.81
2023-02-23T04:55:26.473Z,10.81
2023-02-23T04:56:29.143Z,10.81
2023-02-23T04:57:32.037Z,10.81
2023-02-23T04:58:34.579Z,10.81
2023-02-23T04:59:36.434Z,10.80
2023-02-23T05:00:39.295Z,10.81
2023-02-23T05:01:41.360Z,10.79
2023-02-23T05:02:44.692Z,10.79
2023-02-23T05:03:46.321Z,10.79
2023-02-23T05:04:48.816Z,10.78
2023-02-23T05:05:50.421Z,10.78
2023-02-23T05:06:53.060Z,10.78
2023-02-23T05:07:54.966Z,10.79
2023-02-23T05:08:57.579Z,10.77
2023-02-23T05:09:59.234Z,10.76
2023-02-23T05:11:01.714Z,10.76
2023-02-23T05:12:03.706Z,10.74
2023-02-23T05:13:08.788Z,10.73
2023-02-23T05:14:11.683Z,10.73
2023-02-23T05:15:14.394Z,10.73
2023-02-23T05:16:16.412Z,10.73
2023-02-23T05:17:19.092Z,10.73
2023-02-23T05:18:21.654Z,10.73
2023-02-23T05:19:24.303Z,10.73
2023-02-23T05:20:26.856Z,10.73
2023-02-23T05:21:28.524Z,10.73
2023-02-23T05:22:31.030Z,10.72
2023-02-23T05:23:33.390Z,10.73
2023-02-23T05:24:39.944Z,10.74
2023-02-23T05:25:41.499Z,10.74
2023-02-23T05:26:45.061Z,10.76
2023-02-23T05:27:46.682Z,10.77
2023-02-23T05:28:50.590Z,10.76
2023-02-23T05:29:52.159Z,10.77
2023-02-23T05:30:54.784Z,10.77
2023-02-23T05:31:56.667Z,10.78
2023-02-23T05:32:59.745Z,10.77
2023-02-23T05:34:01.369Z,10.78
2023-02-23T05:35:04.424Z,10.78
2023-02-23T05:36:06.713Z,10.78
2023-02-23T05:37:10.031Z,10.79
2023-02-23T05:38:12.813Z,10.80
2023-02-23T05:39:15.346Z,10.80
2023-02-23T05:40:16.953Z,10.79
2023-02-23T05:41:22.299Z,10.81
2023-02-23T05:42:24.106Z,10.80
2023-02-23T05:43:27.604Z,10.82
2023-02-23T05:44:30.527Z,10.82
2023-02-23T05:45:33.146Z,10.82
2023-02-23T05:46:36.624Z,10.82
2023-02-23T05:47:39.697Z,10.83
2023-02-23T05:48:41.325Z,10.84
2023-02-23T05:49:46.017Z,10.83
2023-02-23T05:50:47.968Z,10.83
2023-02-23T05:51:50.568Z,10.83
2023-02-23T05:52:52.149Z,10.83
2023-02-23T05:53:54.998Z,10.81
2023-02-23T05:54:56.777Z,10.81
2023-02-23T05:55:59.359Z,10.80
2023-02-23T05:57:01.925Z,10.79
2023-02-23T05:58:04.526Z,10.79
2023-02-23T05:59:06.123Z,10.77
2023-02-23T06:00:11.899Z,10.78
2023-02-23T06:01:17.888Z,10.77
2023-02-23T06:02:20.655Z,10.77
2023-02-23T06:03:22.665Z,10.77
2023-02-23T06:04:25.554Z,10.78
2023-02-23T06:05:27.072Z,10.77
2023-02-23T06:06:29.668Z,10.75
2023-02-23T06:07:31.588Z,10.76
2023-02-23T06:08:34.500Z,10.77
2023-02-23T06:09:45.771Z,10.76
2023-02-23T06:10:47.694Z,10.77
2023-02-23T06:11:50.207Z,10.75
2023-02-23T06:12:51.761Z,10.74
2023-02-23T06:13:55.200Z,10.73
2023-02-23T06:14:57.076Z,10.73
2023-02-23T06:16:01.137Z,10.73
2023-02-23T06:17:02.811Z,10.74
2023-02-23T06:18:05.689Z,10.74
2023-02-23T06:19:07.852Z,10.74
2023-02-23T06:20:11.840Z,10.74
2023-02-23T06:21:13.411Z,10.74
2023-02-23T06:22:17.327Z,10.74
2023-02-23T06:23:18.964Z,10.73
2023-02-23T06:24:23.845Z,10.73
2023-02-23T06:25:25.403Z,10.74
2023-02-23T06:26:28.387Z,10.74
2023-02-23T06:27:30.015Z,10.74
2023-02-23T06:28:33.149Z,10.74
2023-02-23T06:29:35.013Z,10.75
2023-02-23T06:30:39.004Z,10.75
2023-02-23T06:31:42.056Z,10.76
2023-02-23T06:32:44.705Z,10.75
2023-02-23T06:33:46.344Z,10.76
2023-02-23T06:34:48.914Z,10.76
2023-02-23T06:35:50.569Z,10.75
2023-02-23T06:36:53.484Z,10.75
2023-02-23T06:37:55.199Z,10.76
2023-02-23T06:38:58.824Z,10.77
2023-02-23T06:40:07.740Z,10.78
2023-02-23T06:41:11.683Z,10.78
2023-02-23T06:42:13.271Z,10.78
2023-02-23T06:43:15.862Z,10.77
2023-02-23T06:44:17.439Z,10.76
2023-02-23T06:45:20.169Z,10.75
2023-02-23T06:46:22.044Z,10.73
2023-02-23T06:47:26.058Z,10.73
2023-02-23T06:48:27.808Z,10.73
2023-02-23T06:49:30.302Z,10.74
2023-02-23T06:50:31.955Z,10.74
2023-02-23T06:51:34.591Z,10.74
2023-02-23T06:52:36.627Z,10.75
2023-02-23T06:53:39.155Z,10.74
2023-02-23T06:54:41.706Z,10.73
2023-02-23T06:55:44.736Z,10.73
2023-02-23T06:56:46.397Z,10.73
2023-02-23T06:57:51.419Z,10.72
2023-02-23T06:58:53.168Z,10.71
2023-02-23T06:59:55.908Z,10.71
2023-02-23T07:00:59.475Z,10.70
2023-02-23T07:02:01.588Z,10.71
2023-02-23T07:03:06.790Z,10.71
2023-02-23T07:04:09.415Z,10.71
2023-02-23T07:05:11.440Z,10.71
2023-02-23T07:06:14.034Z,10.71
2023-02-23T07:07:15.893Z,10.70
2023-02-23T07:08:20.140Z,10.69
2023-02-23T07:09:21.746Z,10.69
2023-02-23T07:10:24.392Z,10.70
2023-02-23T07:11:25.974Z,10.71
2023-02-23T07:12:28.489Z,10.72
2023-02-23T07:13:30.013Z,10.71
2023-02-23T07:14:34.070Z,10.73
2023-02-23T07:15:36.461Z,10.73
2023-02-23T07:16:40.001Z,10.73
2023-02-23T07:17:41.551Z,10.74
2023-02-23T07:18:45.437Z,10.74
2023-02-23T07:19:46.980Z,10.73
2023-02-23T07:20:51.712Z,10.74
2023-02-23T07:21:54.509Z,10.74
2023-02-23T07:22:56.022Z,10.74
2023-02-23T07:23:58.925Z,10.75
2023-02-23T07:25:01.882Z,10.77
2023-02-23T07:26:04.453Z,10.77
2023-02-23T07:27:06.003Z,10.79
2023-02-23T07:28:08.513Z,10.80
2023-02-23T07:29:12.202Z,10.82
2023-02-23T07:30:15.277Z,10.82
2023-02-23T07:31:18.903Z,10.83
2023-02-23T07:32:21.787Z,10.83
2023-02-23T07:33:24.037Z,10.85
2023-02-23T07:34:28.099Z,10.85
2023-02-23T07:35:30.643Z,10.87
2023-02-23T07:36:32.463Z,10.88
2023-02-23T07:37:35.028Z,10.89
2023-02-23T07:38:36.621Z,10.89
2023-02-23T07:39:39.451Z,10.90
2023-02-23T07:40:42.522Z,10.90
2023-02-23T07:41:44.187Z,10.91
2023-02-23T07:42:46.769Z,10.91
2023-02-23T07:43:48.432Z,10.91
2023-02-23T07:44:51.077Z,10.91
2023-02-23T07:45:52.725Z,10.92
2023-02-23T07:46:55.251Z,10.92
2023-02-23T07:47:56.825Z,10.93
2023-02-23T07:48:59.449Z,10.93
2023-02-23T07:50:03.416Z,10.94
2023-02-23T07:51:10.314Z,10.95
2023-02-23T07:52:11.864Z,10.94
2023-02-23T07:53:15.133Z,10.96
2023-02-23T07:54:16.850Z,10.96
2023-02-23T07:55:19.703Z,10.96
2023-02-23T07:56:21.540Z,10.96
2023-02-23T07:57:25.086Z,10.94
2023-02-23T07:58:26.885Z,10.95
2023-02-23T07:59:29.567Z,10.94
2023-02-23T08:00:32.740Z,10.95
2023-02-23T08:01:35.956Z,10.95
2023-02-23T08:02:37.552Z,10.94
2023-02-23T08:03:40.542Z,10.96
2023-02-23T08:04:43.053Z,10.97
2023-02-23T08:05:47.029Z,10.99
2023-02-23T08:06:48.556Z,10.99
2023-02-23T08:07:51.069Z,10.98
2023-02-23T08:08:52.713Z,10.98
2023-02-23T08:09:55.228Z,10.97
2023-02-23T08:10:59.995Z,10.96
2023-02-23T08:12:02.681Z,10.95
2023-02-23T08:13:04.477Z,10.94
2023-02-23T08:14:07.368Z,10.95
2023-02-23T08:15:09.953Z,10.96
2023-02-23T08:16:12.607Z,10.96
2023-02-23T08:17:15.287Z,10.98
2023-02-23T08:18:17.530Z,10.97
2023-02-23T08:19:22.690Z,10.97
2023-02-23T08:20:25.626Z,10.96
2023-02-23T08:21:30.467Z,10.98
2023-02-23T08:22:47.145Z,10.98
2023-02-23T08:23:51.320Z,10.99
2023-02-23T08:24:52.917Z,11.01
2023-02-23T08:25:55.554Z,11.01
2023-02-23T08:26:57.529Z,11.00
2023-02-23T08:28:04.779Z,11.01
2023-02-23T08:29:07.471Z,11.03
2023-02-23T08:30:10.658Z,11.04
2023-02-23T08:31:13.452Z,11.05
2023-02-23T08:32:16.744Z,11.05
2023-02-23T08:33:19.310Z,11.05
2023-02-23T08:34:22.666Z,11.03
2023-02-23T08:35:25.278Z,11.03
2023-02-23T08:36:29.597Z,11.02
2023-02-23T08:37:31.673Z,11.01
2023-02-23T08:38:36.480Z,11.00
2023-02-23T08:39:38.036Z,10.99
2023-02-23T08:40:41.360Z,10.99
2023-02-23T08:41:42.921Z,10.99
2023-02-23T08:42:45.591Z,10.99
2023-02-23T08:43:59.539Z,11.01
2023-02-23T08:45:05.502Z,11.01
2023-02-23T08:46:10.652Z,11.03
2023-02-23T08:47:13.183Z,11.02
2023-02-23T08:48:15.267Z,11.03
2023-02-23T08:49:18.078Z,11.04
2023-02-23T08:50:19.800Z,11.05
2023-02-23T08:51:22.485Z,11.06
2023-02-23T08:52:25.538Z,11.07
2023-02-23T08:53:29.606Z,11.08
2023-02-23T08:54:32.116Z,11.07
2023-02-23T08:55:35.509Z,11.08
2023-02-23T08:56:38.072Z,11.07
2023-02-23T08:57:39.837Z,11.06
2023-02-23T08:58:43.070Z,11.06
2023-02-23T08:59:45.561Z,11.05
2023-02-23T09:00:47.125Z,11.05
2023-02-23T09:01:50.211Z,11.07
2023-02-23T09:02:53.995Z,11.07
2023-02-23T09:03:56.507Z,11.07
2023-02-23T09:04:58.999Z,11.08
2023-02-23T09:06:07.990Z,11.10
2023-02-23T09:07:14.421Z,11.11
2023-02-23T09:08:18.979Z,11.14
2023-02-23T09:09:21.457Z,11.16
2023-02-23T09:10:24.855Z,11.16
2023-02-23T09:11:27.522Z,11.16
2023-02-23T09:12:29.401Z,11.18
2023-02-23T09:13:32.030Z,11.18
2023-02-23T09:14:33.674Z,11.20
2023-02-23T09:15:36.319Z,11.22
2023-02-23T09:16:39.047Z,11.23
2023-02-23T09:17:42.793Z,11.23
2023-02-23T09:18:45.698Z,11.22
2023-02-23T09:19:48.171Z,11.23
2023-02-23T09:20:51.596Z,11.25
2023-02-23T09:21:53.556Z,11.26
2023-02-23T09:22:56.252Z,11.27
2023-02-23T09:24:01.215Z,11.27
2023-02-23T09:25:04.786Z,11.29
2023-02-23T09:26:08.309Z,11.31
2023-02-23T09:27:12.773Z,11.31
2023-02-23T09:28:17.359Z,11.31
2023-02-23T09:29:19.941Z,11.30
2023-02-23T09:30:23.101Z,11.28
2023-02-23T09:31:25.120Z,11.27
2023-02-23T09:32:27.801Z,11.27
2023-02-23T09:33:29.487Z,11.28
2023-02-23T09:34:32.025Z,11.29
2023-02-23T09:35:36.111Z,11.29
2023-02-23T09:36:39.069Z,11.30
2023-02-23T09:37:40.979Z,11.31
2023-02-23T09:38:43.763Z,11.31
2023-02-23T09:39:48.675Z,11.32
2023-02-23T09:40:53.131Z,11.31
2023-02-23T09:42:08.354Z,11.32
2023-02-23T09:43:16.213Z,11.33
2023-02-23T09:44:26.321Z,11.31
2023-02-23T09:45:36.798Z,11.32
2023-02-23T09:46:44.761Z,11.32
2023-02-23T09:47:59.824Z,11.32
2023-02-23T09:49:04.687Z,11.32
2023-02-23T09:50:14.565Z,11.35
2023-02-23T09:51:21.814Z,11.35
2023-02-23T09:52:28.258Z,11.37
2023-02-23T09:53:44.041Z,11.37
2023-02-23T09:54:47.262Z,11.37
2023-02-23T09:55:52.627Z,11.39
2023-02-23T09:56:56.289Z,11.39
2023-02-23T09:58:06.814Z,11.39
2023-02-23T09:59:15.420Z,11.38
2023-02-23T10:00:20.266Z,11.36
2023-02-23T10:01:55.109Z,11.39
2023-02-23T10:03:24.581Z,11.39
2023-02-23T10:04:30.294Z,11.39
2023-02-23T10:05:39.456Z,11.40
2023-02-23T10:06:45.450Z,11.36
2023-02-23T10:07:55.420Z,11.36
2023-02-23T10:09:07.237Z,11.35
2023-02-23T10:10:22.679Z,11.35
2023-02-23T10:11:29.322Z,11.34
2023-02-23T10:12:39.927Z,11.34
2023-02-23T10:13:51.112Z,11.36
2023-02-23T10:15:06.375Z,11.35
2023-02-23T10:16:16.467Z,11.35
2023-02-23T10:17:29.697Z,11.32
2023-02-23T10:18:46.426Z,11.31
2023-02-23T10:19:54.350Z,11.29
2023-02-23T10:21:04.100Z,11.28
2023-02-23T10:22:10.046Z,11.25
2023-02-23T10:23:16.431Z,11.22
2023-02-23T10:24:22.898Z,11.20
2023-02-23T10:25:36.424Z,11.18
2023-02-23T10:26:52.909Z,11.17
2023-02-23T10:27:58.277Z,11.17
2023-02-23T10:29:21.881Z,11.18
2023-02-23T10:30:27.706Z,11.18
2023-02-23T10:31:37.938Z,11.18
2023-02-23T10:32:46.849Z,11.20
2023-02-23T10:33:48.598Z,11.19
2023-02-23T10:34:56.416Z,11.22
2023-02-23T10:36:13.223Z,11.21
2023-02-23T10:37:18.534Z,11.20
2023-02-23T10:38:20.141Z,11.19
2023-02-23T10:39:23.071Z,11.17
2023-02-23T10:40:28.986Z,11.18
2023-02-23T10:41:32.208Z,11.17
2023-02-23T10:42:35.183Z,11.16
2023-02-23T10:43:37.006Z,11.16
2023-02-23T10:44:39.820Z,11.18
2023-02-23T10:45:46.900Z,11.18
2023-02-23T10:46:55.643Z,11.17
2023-02-23T10:48:02.790Z,11.16
2023-02-23T10:49:04.843Z,11.16
2023-02-23T10:50:10.907Z,11.16
2023-02-23T10:51:21.038Z,11.16
2023-02-23T10:52:31.655Z,11.16
2023-02-23T10:53:37.306Z,11.15
2023-02-23T10:54:45.501Z,11.15
2023-02-23T10:56:00.573Z,11.16
2023-02-23T10:57:05.680Z,11.18
2023-02-23T10:58:17.231Z,11.17
2023-02-23T10:59:21.439Z,11.20
2023-02-23T11:00:33.151Z,11.23
2023-02-23T11:01:41.799Z,11.26
2023-02-23T11:02:47.824Z,11.28
2023-02-23T11:04:05.449Z,11.31
2023-02-23T11:05:28.773Z,11.34
2023-02-23T11:06:35.636Z,11.36
2023-02-23T11:07:37.576Z,11.36
2023-02-23T11:08:41.176Z,11.37
2023-02-23T11:09:47.407Z,11.40
2023-02-23T11:11:25.357Z,11.40
2023-02-23T11:12:41.731Z,11.40
2023-02-23T11:13:46.149Z,11.40
2023-02-23T11:14:48.234Z,11.40
2023-02-23T11:16:00.202Z,11.40
2023-02-23T11:17:02.863Z,11.40
2023-02-23T11:18:05.811Z,11.39
2023-02-23T11:19:22.824Z,11.42
2023-02-23T11:20:30.620Z,11.44
2023-02-23T11:21:35.817Z,11.46
2023-02-23T11:22:41.651Z,11.46
2023-02-23T11:23:45.231Z,11.46
2023-02-23T11:24:46.867Z,11.46
2023-02-23T11:25:52.460Z,11.48
2023-02-23T11:26:57.880Z,11.50
2023-02-23T11:28:01.006Z,11.50
2023-02-23T11:29:12.409Z,11.50
2023-02-23T11:30:14.492Z,11.49
2023-02-23T11:31:21.915Z,11.47
2023-02-23T11:32:29.250Z,11.46
2023-02-23T11:33:35.827Z,11.46
2023-02-23T11:34:40.681Z,11.45
2023-02-23T11:35:42.378Z,11.45
2023-02-23T11:36:44.950Z,11.43
2023-02-23T11:37:47.520Z,11.41
2023-02-23T11:39:03.138Z,11.38
2023-02-23T11:40:22.843Z,11.38
2023-02-23T11:41:25.404Z,11.37
2023-02-23T11:42:33.404Z,11.37
2023-02-23T11:43:37.408Z,11.36
2023-02-23T11:44:39.054Z,11.34
2023-02-23T11:45:47.943Z,11.35
2023-02-23T11:46:51.373Z,11.36
2023-02-23T11:47:56.723Z,11.39
2023-02-23T11:49:01.711Z,11.40
2023-02-23T11:50:05.646Z,11.40
2023-02-23T11:51:07.636Z,11.39
2023-02-23T11:52:16.227Z,11.36
2023-02-23T11:53:22.269Z,11.34
2023-02-23T11:54:30.501Z,11.31
2023-02-23T11:55:35.660Z,11.25
2023-02-23T11:56:37.321Z,11.21
2023-02-23T11:57:39.865Z,11.19
2023-02-23T11:58:46.383Z,11.17
2023-02-23T11:59:49.477Z,11.16
2023-02-23T12:00:56.111Z,11.17
2023-02-23T12:02:07.370Z,11.15
2023-02-23T12:03:21.724Z,11.14
2023-02-23T12:04:29.456Z,11.14
2023-02-23T12:05:33.212Z,11.11
2023-02-23T12:06:39.010Z,11.11
2023-02-23T12:07:47.153Z,11.11
2023-02-23T12:08:54.593Z,11.13
2023-02-23T12:10:03.322Z,11.13
2023-02-23T12:11:12.318Z,11.12
2023-02-23T12:12:19.515Z,11.11
2023-02-23T12:13:30.075Z,11.10
2023-02-23T12:14:41.385Z,11.08
2023-02-23T12:15:51.285Z,11.08
2023-02-23T12:16:58.060Z,11.05
2023-02-23T12:18:04.686Z,11.06
2023-02-23T12:19:19.644Z,11.04
2023-02-23T12:20:26.397Z,11.04
2023-02-23T12:21:35.230Z,11.04
2023-02-23T12:22:44.540Z,11.05
2023-02-23T12:23:52.535Z,11.05
2023-02-23T12:25:02.768Z,11.09
2023-02-23T12:26:12.646Z,11.12
2023-02-23T12:27:18.064Z,11.15
2023-02-23T12:28:27.192Z,11.17
2023-02-23T12:29:36.688Z,11.19
2023-02-23T12:30:47.310Z,11.20
2023-02-23T12:31:54.376Z,11.21
2023-02-23T12:33:02.721Z,11.24
2023-02-23T12:34:13.491Z,11.26
2023-02-23T12:35:20.178Z,11.29
2023-02-23T12:36:33.177Z,11.32
2023-02-23T12:37:39.561Z,11.33
2023-02-23T12:38:50.329Z,11.33
2023-02-23T12:39:58.752Z,11.33
2023-02-23T12:41:07.812Z,11.34
2023-02-23T12:42:20.446Z,11.36
2023-02-23T12:43:30.017Z,11.37
2023-02-23T12:44:42.945Z,11.37
2023-02-23T12:45:52.498Z,11.38
2023-02-23T12:46:59.646Z,11.40
2023-02-23T12:48:13.265Z,11.43
2023-02-23T12:49:25.268Z,11.43
2023-02-23T12:50:31.961Z,11.44
2023-02-23T12:51:40.293Z,11.43
2023-02-23T12:52:49.041Z,11.45
2023-02-23T12:53:53.078Z,11.46
2023-02-23T12:54:56.433Z,11.46
2023-02-23T12:56:07.785Z,11.45
2023-02-23T12:57:23.716Z,11.45
2023-02-23T12:58:34.785Z,11.45
2023-02-23T13:00:00.658Z,11.47
2023-02-23T13:01:17.548Z,11.48
2023-02-23T13:02:25.845Z,11.48
2023-02-23T13:03:46.161Z,11.47
2023-02-23T13:05:15.301Z,11.44
2023-02-23T13:06:23.744Z,11.44
2023-02-23T13:07:35.131Z,11.42
2023-02-23T13:08:57.367Z,11.39
2023-02-23T13:10:13.182Z,11.41
2023-02-23T13:11:27.626Z,11.41
2023-02-23T13:12:51.938Z,11.41
2023-02-23T13:14:01.870Z,11.40
2023-02-23T13:15:19.660Z,11.39
2023-02-23T13:16:31.354Z,11.38
2023-02-23T13:17:39.087Z,11.40
2023-02-23T13:18:47.272Z,11.42
2023-02-23T13:19:53.608Z,11.44
2023-02-23T13:21:01.940Z,11.45
2023-02-23T13:22:15.273Z,11.47
2023-02-23T13:23:26.400Z,11.51
2023-02-23T13:24:37.517Z,11.53
2023-02-23T13:25:47.331Z,11.53
2023-02-23T13:26:56.047Z,11.54
2023-02-23T13:27:59.918Z,11.55
2023-02-23T13:29:07.208Z,11.56
2023-02-23T13:30:12.519Z,11.57
2023-02-23T13:31:24.039Z,11.58
2023-02-23T13:32:31.988Z,11.59
2023-02-23T13:33:44.122Z,11.58
2023-02-23T13:39:48.650Z,11.39
2023-02-23T13:40:58.454Z,11.36
2023-02-23T13:42:15.936Z,11.34
2023-02-23T13:43:29.729Z,11.33
2023-02-23T13:49:28.366Z,11.25
2023-02-23T13:50:37.572Z,11.25
2023-02-23T13:51:45.511Z,11.27
2023-02-23T13:52:48.250Z,11.27
2023-02-23T13:54:01.049Z,11.29
2023-02-23T13:55:04.337Z,11.29
2023-02-23T13:56:08.860Z,11.29
2023-02-23T13:57:17.257Z,11.30
2023-02-23T13:58:25.847Z,11.31
2023-02-23T13:59:30.479Z,11.33
2023-02-23T14:00:34.177Z,11.33
2023-02-23T14:01:40.075Z,11.33
2023-02-23T14:02:41.962Z,11.32
2023-02-23T14:03:48.667Z,11.32
2023-02-23T14:04:52.612Z,11.33
2023-02-23T14:05:59.378Z,11.33
2023-02-23T14:07:05.173Z,11.33
2023-02-23T14:08:08.413Z,11.32
2023-02-23T14:09:13.906Z,11.31
2023-02-23T14:10:20.187Z,11.30
2023-02-23T14:11:45.180Z,11.29
2023-02-23T14:13:07.507Z,11.29
2023-02-23T14:14:13.828Z,11.29
2023-02-23T14:15:45.233Z,11.31
2023-02-23T14:17:11.897Z,11.32
2023-02-23T14:23:17.529Z,11.38
2023-02-23T14:24:23.002Z,11.37
2023-02-23T14:25:45.299Z,11.37
2023-02-23T14:27:40.294Z,11.35
2023-02-23T14:28:44.807Z,11.31
2023-02-23T14:30:25.241Z,11.29
2023-02-23T14:31:31.784Z,11.28
2023-02-23T14:37:31.999Z,11.16
2023-02-23T14:38:47.497Z,11.12
2023-02-23T14:39:52.489Z,11.13
2023-02-23T14:40:55.306Z,11.13
2023-02-23T14:42:00.849Z,11.13
2023-02-23T14:43:04.275Z,11.14
2023-02-23T14:44:20.156Z,11.15
2023-02-23T14:45:32.616Z,11.15
2023-02-23T14:46:36.919Z,11.18
2023-02-23T14:47:43.515Z,11.19
2023-02-23T14:48:58.460Z,11.20
2023-02-23T14:54:41.703Z,11.12
2023-02-23T14:55:45.499Z,11.09
2023-02-23T14:56:48.835Z,11.08
2023-02-23T14:57:52.528Z,11.08
2023-02-23T14:58:55.309Z,11.07
2023-02-23T15:00:00.402Z,11.07
2023-02-23T15:01:01.915Z,11.05
2023-02-23T15:02:10.316Z,11.07
2023-02-23T15:03:13.472Z,11.07
2023-02-23T15:04:19.510Z,11.06
2023-02-23T15:05:23.888Z,11.07
2023-02-23T15:06:26.863Z,11.07
2023-02-23T15:07:33.095Z,11.06
2023-02-23T15:08:44.606Z,11.06
2023-02-23T15:09:48.743Z,11.07
2023-02-23T15:10:52.962Z,11.06
2023-02-23T15:12:00.161Z,11.07
2023-02-23T15:13:09.949Z,11.06
2023-02-23T15:14:26.838Z,11.07
2023-02-23T15:15:31.639Z,11.05
2023-02-23T15:16:36.314Z,11.06
2023-02-23T15:17:43.894Z,11.06
2023-02-23T15:21:14.452Z,11.06
2023-02-23T15:22:24.641Z,11.06
2023-02-23T15:23:26.436Z,11.06